« Back
NWS Peachtree City, Ga » Text Product » ATL Terminal Aerodrome Forecast


Printer-friendly Version
Current Version              Previous Versions:   1  2  3  4  5  6  7  8  9  

Terminal Aerodrome Forecast

320
FTUS42 KFFC 311959 AAA
TAFATL
TAF AMD
KATL 311959Z 3120/0124 01007KT P6SM BKN050
     FM010000 34006KT P6SM FEW250
     FM011100 01005KT P6SM FEW250
     FM011600 05006KT P6SM FEW040=



USA.gov is the U.S. government's official web portal to all federal, state and local government web resources and services.